sensor_id;sensor_type;location;lat;lon;timestamp;pressure;altitude;pressure_sealevel;temperature;humidity
31585;BME280;18191;51.288;12.390;2022-07-06T00:00:31;48734.34;;;-144.47;47.83
31585;BME280;18191;51.288;12.390;2022-07-06T00:05:21;48762.19;;;-144.47;48.59
31585;BME280;18191;51.288;12.390;2022-07-06T00:10:12;48770.13;;;-144.47;47.09
31585;BME280;18191;51.288;12.390;2022-07-06T00:15:02;48766.16;;;-144.47;47.84
31585;BME280;18191;51.288;12.390;2022-07-06T00:19:53;48762.19;;;-144.47;48.34
31585;BME280;18191;51.288;12.390;2022-07-06T00:24:43;48744.28;;;-144.47;49.26
31585;BME280;18191;51.288;12.390;2022-07-06T00:29:33;48801.97;;;-144.47;49.92
31585;BME280;18191;51.288;12.390;2022-07-06T00:34:23;48790.03;;;-144.47;50.09
31585;BME280;18191;51.288;12.390;2022-07-06T00:39:14;48772.13;;;-144.47;49.71
31585;BME280;18191;51.288;12.390;2022-07-06T00:44:07;48790.03;;;-144.47;50.54
31585;BME280;18191;51.288;12.390;2022-07-06T00:48:58;48768.16;;;-144.47;49.59
31585;BME280;18191;51.288;12.390;2022-07-06T00:53:49;48754.22;;;-144.47;48.86
31585;BME280;18191;51.288;12.390;2022-07-06T00:58:39;48746.28;;;-144.47;48.91
31585;BME280;18191;51.288;12.390;2022-07-06T01:03:29;48778.09;;;-144.47;48.53
31585;BME280;18191;51.288;12.390;2022-07-06T01:08:20;48788.03;;;-144.47;48.86
31585;BME280;18191;51.288;12.390;2022-07-06T01:13:10;48718.41;;;-144.47;49.16
31585;BME280;18191;51.288;12.390;2022-07-06T01:18:01;48813.91;;;-144.47;50.37
31585;BME280;18191;51.288;12.390;2022-07-06T01:22:53;48766.16;;;-144.47;46.79
31585;BME280;18191;51.288;12.390;2022-07-06T01:27:44;48760.19;;;-144.47;47.71
31585;BME280;18191;51.288;12.390;2022-07-06T01:32:35;48742.28;;;-144.47;47.33
31585;BME280;18191;51.288;12.390;2022-07-06T01:37:25;48790.03;;;-144.47;46.19
31585;BME280;18191;51.288;12.390;2022-07-06T01:42:16;48774.13;;;-144.47;47.42
31585;BME280;18191;51.288;12.390;2022-07-06T01:47:07;48754.22;;;-144.47;45.52
31585;BME280;18191;51.288;12.390;2022-07-06T01:51:57;48766.16;;;-144.47;45.02
31585;BME280;18191;51.288;12.390;2022-07-06T01:56:47;48754.22;;;-144.47;44.79
31585;BME280;18191;51.288;12.390;2022-07-06T02:01:38;48750.25;;;-144.47;44.81
31585;BME280;18191;51.288;12.390;2022-07-06T02:06:28;48742.28;;;-144.47;44.95
31585;BME280;18191;51.288;12.390;2022-07-06T02:11:18;48766.16;;;-144.47;44.92
31585;BME280;18191;51.288;12.390;2022-07-06T02:16:09;48748.25;;;-144.47;45.15
31585;BME280;18191;51.288;12.390;2022-07-06T02:20:59;48726.38;;;-144.47;45.87
31585;BME280;18191;51.288;12.390;2022-07-06T02:25:49;48778.09;;;-144.47;45.88
31585;BME280;18191;51.288;12.390;2022-07-06T02:30:40;48760.19;;;-144.47;46.58
31585;BME280;18191;51.288;12.390;2022-07-06T02:35:30;48736.31;;;-144.47;46.92
31585;BME280;18191;51.288;12.390;2022-07-06T02:40:20;48758.19;;;-144.47;46.69
31585;BME280;18191;51.288;12.390;2022-07-06T02:45:12;48738.31;;;-144.47;47.08
31585;BME280;18191;51.288;12.390;2022-07-06T02:50:02;48766.16;;;-144.47;47.57
31585;BME280;18191;51.288;12.390;2022-07-06T02:54:52;48746.28;;;-144.47;48.19
31585;BME280;18191;51.288;12.390;2022-07-06T02:59:43;48805.94;;;-144.47;48.37
31585;BME280;18191;51.288;12.390;2022-07-06T03:04:34;48738.31;;;-144.47;49.38
31585;BME280;18191;51.288;12.390;2022-07-06T03:09:24;48754.22;;;-144.47;49.48
31585;BME280;18191;51.288;12.390;2022-07-06T03:14:14;48774.13;;;-144.47;49.79
31585;BME280;18191;51.288;12.390;2022-07-06T03:19:04;48792.03;;;-144.47;51.03
31585;BME280;18191;51.288;12.390;2022-07-06T03:23:55;48778.09;;;-144.47;50.32
31585;BME280;18191;51.288;12.390;2022-07-06T03:28:45;48758.19;;;-144.47;50.91
31585;BME280;18191;51.288;12.390;2022-07-06T03:33:35;48744.28;;;-144.47;51.08
31585;BME280;18191;51.288;12.390;2022-07-06T03:38:25;48774.13;;;-144.47;51.45
31585;BME280;18191;51.288;12.390;2022-07-06T03:43:16;48736.31;;;-144.47;51.13
31585;BME280;18191;51.288;12.390;2022-07-06T03:48:08;48720.41;;;-144.47;51.41
31585;BME280;18191;51.288;12.390;2022-07-06T03:52:58;48776.09;;;-144.47;52.01
31585;BME280;18191;51.288;12.390;2022-07-06T03:57:48;48794.00;;;-144.47;51.54
31585;BME280;18191;51.288;12.390;2022-07-06T04:02:38;48786.06;;;-144.47;50.26
31585;BME280;18191;51.288;12.390;2022-07-06T04:07:29;48746.28;;;-144.47;50.29
31585;BME280;18191;51.288;12.390;2022-07-06T04:12:19;48778.09;;;-144.47;50.42
31585;BME280;18191;51.288;12.390;2022-07-06T04:17:09;48756.22;;;-144.47;49.95
31585;BME280;18191;51.288;12.390;2022-07-06T04:22:18;48786.06;;;-144.47;48.98
31585;BME280;18191;51.288;12.390;2022-07-06T04:27:08;48754.22;;;-144.47;48.63
31585;BME280;18191;51.288;12.390;2022-07-06T04:31:59;48740.31;;;-144.47;47.62
31585;BME280;18191;51.288;12.390;2022-07-06T04:36:49;48758.19;;;-144.47;46.52
31585;BME280;18191;51.288;12.390;2022-07-06T04:41:39;48748.25;;;-144.47;47.01
31585;BME280;18191;51.288;12.390;2022-07-06T04:46:30;48805.94;;;-144.47;48.53
31585;BME280;18191;51.288;12.390;2022-07-06T04:51:20;48748.25;;;-144.47;48.13
31585;BME280;18191;51.288;12.390;2022-07-06T04:56:10;48782.06;;;-144.47;46.80
31585;BME280;18191;51.288;12.390;2022-07-06T05:01:00;48784.06;;;-144.47;45.38
31585;BME280;18191;51.288;12.390;2022-07-06T05:05:51;48790.03;;;-144.47;44.75
31585;BME280;18191;51.288;12.390;2022-07-06T05:10:41;48766.16;;;-144.47;46.31
31585;BME280;18191;51.288;12.390;2022-07-06T05:15:31;48722.41;;;-144.47;39.09
31585;BME280;18191;51.288;12.390;2022-07-06T05:20:21;48708.47;;;-144.47;36.84
31585;BME280;18191;51.288;12.390;2022-07-06T05:25:12;48682.63;;;-144.47;33.68
31585;BME280;18191;51.288;12.390;2022-07-06T05:30:03;48684.59;;;-144.47;31.64
31585;BME280;18191;51.288;12.390;2022-07-06T05:34:53;48738.31;;;-144.47;36.29
31585;BME280;18191;51.288;12.390;2022-07-06T05:39:43;48766.16;;;-144.47;39.77
31585;BME280;18191;51.288;12.390;2022-07-06T05:44:35;48766.16;;;-144.47;42.76
31585;BME280;18191;51.288;12.390;2022-07-06T05:49:25;48742.28;;;-144.47;44.29
31585;BME280;18191;51.288;12.390;2022-07-06T05:54:34;48718.41;;;-144.47;44.50
31585;BME280;18191;51.288;12.390;2022-07-06T05:59:24;48748.25;;;-144.47;44.20
31585;BME280;18191;51.288;12.390;2022-07-06T06:04:14;48754.22;;;-144.47;43.28
31585;BME280;18191;51.288;12.390;2022-07-06T06:09:05;48742.28;;;-144.47;41.81
31585;BME280;18191;51.288;12.390;2022-07-06T06:13:55;48766.16;;;-144.47;42.81
31585;BME280;18191;51.288;12.390;2022-07-06T06:18:45;48698.53;;;-144.47;41.67
31585;BME280;18191;51.288;12.390;2022-07-06T06:23:36;48782.06;;;-144.47;41.36
31585;BME280;18191;51.288;12.390;2022-07-06T06:28:26;48774.13;;;-144.47;40.20
31585;BME280;18191;51.288;12.390;2022-07-06T06:33:19;48732.34;;;-144.47;38.73
31585;BME280;18191;51.288;12.390;2022-07-06T06:38:09;48758.19;;;-144.47;37.75
31585;BME280;18191;51.288;12.390;2022-07-06T06:43:00;48734.34;;;-144.47;37.52
31585;BME280;18191;51.288;12.390;2022-07-06T06:47:50;48766.16;;;-144.47;36.77
31585;BME280;18191;51.288;12.390;2022-07-06T06:52:40;48710.47;;;-144.47;37.38
31585;BME280;18191;51.288;12.390;2022-07-06T06:57:31;48748.25;;;-144.47;37.90
31585;BME280;18191;51.288;12.390;2022-07-06T07:02:21;48718.41;;;-144.47;37.57
31585;BME280;18191;51.288;12.390;2022-07-06T07:07:11;48718.41;;;-144.47;36.41
31585;BME280;18191;51.288;12.390;2022-07-06T07:12:02;48766.16;;;-144.47;36.34
31585;BME280;18191;51.288;12.390;2022-07-06T07:16:52;48760.19;;;-144.47;36.81
31585;BME280;18191;51.288;12.390;2022-07-06T07:21:42;48742.28;;;-144.47;36.63
31585;BME280;18191;51.288;12.390;2022-07-06T07:26:33;48712.44;;;-144.47;36.82
31585;BME280;18191;51.288;12.390;2022-07-06T07:31:23;48698.53;;;-144.47;35.60
31585;BME280;18191;51.288;12.390;2022-07-06T07:36:13;48742.28;;;-144.47;34.68
31585;BME280;18191;51.288;12.390;2022-07-06T07:41:03;48766.16;;;-144.47;34.20
31585;BME280;18191;51.288;12.390;2022-07-06T07:45:55;48730.34;;;-144.47;34.55
31585;BME280;18191;51.288;12.390;2022-07-06T07:50:45;48726.38;;;-144.47;34.71
31585;BME280;18191;51.288;12.390;2022-07-06T07:55:36;48790.03;;;-144.47;34.72
31585;BME280;18191;51.288;12.390;2022-07-06T08:00:26;48726.38;;;-144.47;33.53
31585;BME280;18191;51.288;12.390;2022-07-06T08:05:18;48710.47;;;-144.47;34.14
31585;BME280;18191;51.288;12.390;2022-07-06T08:10:10;48726.38;;;-144.47;33.96
31585;BME280;18191;51.288;12.390;2022-07-06T08:15:02;48794.00;;;-144.47;33.74
31585;BME280;18191;51.288;12.390;2022-07-06T08:19:54;48722.41;;;-144.47;33.59
31585;BME280;18191;51.288;12.390;2022-07-06T08:24:44;48764.16;;;-144.47;32.80
31585;BME280;18191;51.288;12.390;2022-07-06T08:29:34;48736.31;;;-144.47;33.13
31585;BME280;18191;51.288;12.390;2022-07-06T08:34:24;48788.03;;;-144.47;34.05
31585;BME280;18191;51.288;12.390;2022-07-06T08:39:15;48710.47;;;-144.47;32.90
31585;BME280;18191;51.288;12.390;2022-07-06T08:44:06;48710.47;;;-144.47;32.81
31585;BME280;18191;51.288;12.390;2022-07-06T08:48:56;48726.38;;;-144.47;31.76
31585;BME280;18191;51.288;12.390;2022-07-06T08:53:47;48732.34;;;-144.47;33.01
31585;BME280;18191;51.288;12.390;2022-07-06T08:58:39;48766.16;;;-144.47;34.14
31585;BME280;18191;51.288;12.390;2022-07-06T09:03:31;48728.38;;;-144.47;32.73
31585;BME280;18191;51.288;12.390;2022-07-06T09:08:22;48738.31;;;-144.47;31.86
31585;BME280;18191;51.288;12.390;2022-07-06T09:13:13;48730.34;;;-144.47;31.17
31585;BME280;18191;51.288;12.390;2022-07-06T09:18:04;48708.47;;;-144.47;31.78
31585;BME280;18191;51.288;12.390;2022-07-06T09:22:58;48728.38;;;-144.47;31.68
31585;BME280;18191;51.288;12.390;2022-07-06T09:27:49;48714.44;;;-144.47;31.40
31585;BME280;18191;51.288;12.390;2022-07-06T09:32:46;48712.44;;;-144.47;30.93
31585;BME280;18191;51.288;12.390;2022-07-06T09:37:37;48726.38;;;-144.47;32.22
31585;BME280;18191;51.288;12.390;2022-07-06T09:42:28;48718.41;;;-144.47;32.16
31585;BME280;18191;51.288;12.390;2022-07-06T09:47:18;48730.34;;;-144.47;31.15
31585;BME280;18191;51.288;12.390;2022-07-06T09:52:10;48740.31;;;-144.47;31.44
31585;BME280;18191;51.288;12.390;2022-07-06T09:57:01;48764.16;;;-144.47;29.96
31585;BME280;18191;51.288;12.390;2022-07-06T10:01:56;48696.53;;;-144.47;30.68
31585;BME280;18191;51.288;12.390;2022-07-06T10:06:48;48770.13;;;-144.47;31.45
31585;BME280;18191;51.288;12.390;2022-07-06T10:11:51;48748.25;;;-144.47;31.51
31585;BME280;18191;51.288;12.390;2022-07-06T10:16:41;48730.34;;;-144.47;31.64
31585;BME280;18191;51.288;12.390;2022-07-06T10:21:35;48762.19;;;-144.47;31.51
31585;BME280;18191;51.288;12.390;2022-07-06T10:26:25;48704.50;;;-144.47;31.77
31585;BME280;18191;51.288;12.390;2022-07-06T10:31:17;48754.22;;;-144.47;31.57
31585;BME280;18191;51.288;12.390;2022-07-06T10:36:08;48758.19;;;-144.47;32.18
31585;BME280;18191;51.288;12.390;2022-07-06T10:41:03;48746.28;;;-144.47;31.32
31585;BME280;18191;51.288;12.390;2022-07-06T10:45:54;48756.22;;;-144.47;31.01
31585;BME280;18191;51.288;12.390;2022-07-06T10:50:51;48726.38;;;-144.47;29.96
31585;BME280;18191;51.288;12.390;2022-07-06T10:55:46;48730.34;;;-144.47;29.96
31585;BME280;18191;51.288;12.390;2022-07-06T11:00:54;48758.19;;;-144.47;30.42
31585;BME280;18191;51.288;12.390;2022-07-06T11:05:45;48718.41;;;-144.47;30.25
31585;BME280;18191;51.288;12.390;2022-07-06T11:10:47;48738.31;;;-144.47;28.86
31585;BME280;18191;51.288;12.390;2022-07-06T11:15:46;48710.47;;;-144.47;28.75
31585;BME280;18191;51.288;12.390;2022-07-06T11:20:37;48718.41;;;-144.47;27.71
31585;BME280;18191;51.288;12.390;2022-07-06T11:25:27;48714.44;;;-144.47;27.88
31585;BME280;18191;51.288;12.390;2022-07-06T11:30:17;48742.28;;;-144.47;28.25
31585;BME280;18191;51.288;12.390;2022-07-06T11:35:08;48718.41;;;-144.47;28.86
31585;BME280;18191;51.288;12.390;2022-07-06T11:40:06;48710.47;;;-144.47;29.28
31585;BME280;18191;51.288;12.390;2022-07-06T11:44:57;48746.28;;;-144.47;29.61
31585;BME280;18191;51.288;12.390;2022-07-06T11:49:49;48730.34;;;-144.47;29.47
31585;BME280;18191;51.288;12.390;2022-07-06T11:54:40;48734.34;;;-144.47;29.16
31585;BME280;18191;51.288;12.390;2022-07-06T11:59:33;48740.31;;;-144.47;28.52
31585;BME280;18191;51.288;12.390;2022-07-06T12:04:24;48706.50;;;-144.47;29.16
31585;BME280;18191;51.288;12.390;2022-07-06T12:09:15;48714.44;;;-144.47;29.44
31585;BME280;18191;51.288;12.390;2022-07-06T12:14:19;48766.16;;;-144.47;28.39
31585;BME280;18191;51.288;12.390;2022-07-06T12:19:10;48762.19;;;-144.47;29.50
31585;BME280;18191;51.288;12.390;2022-07-06T12:24:07;48770.13;;;-144.47;27.82
31585;BME280;18191;51.288;12.390;2022-07-06T12:29:03;48706.50;;;-144.47;27.68
31585;BME280;18191;51.288;12.390;2022-07-06T12:33:56;48756.22;;;-144.47;27.59
31585;BME280;18191;51.288;12.390;2022-07-06T12:38:47;48714.44;;;-144.47;28.28
31585;BME280;18191;51.288;12.390;2022-07-06T12:43:40;48714.44;;;-144.47;28.45
31585;BME280;18191;51.288;12.390;2022-07-06T12:48:30;48752.22;;;-144.47;29.13
31585;BME280;18191;51.288;12.390;2022-07-06T12:53:26;48718.41;;;-144.47;28.17
31585;BME280;18191;51.288;12.390;2022-07-06T12:58:19;48730.34;;;-144.47;26.16
31585;BME280;18191;51.288;12.390;2022-07-06T13:03:10;48702.50;;;-144.47;27.17
31585;BME280;18191;51.288;12.390;2022-07-06T13:08:00;48742.28;;;-144.47;27.36
31585;BME280;18191;51.288;12.390;2022-07-06T13:12:52;48714.44;;;-144.47;27.52
31585;BME280;18191;51.288;12.390;2022-07-06T13:17:43;48716.44;;;-144.47;27.65
31585;BME280;18191;51.288;12.390;2022-07-06T13:22:34;48742.28;;;-144.47;27.78
31585;BME280;18191;51.288;12.390;2022-07-06T13:27:24;48764.16;;;-144.47;28.06
31585;BME280;18191;51.288;12.390;2022-07-06T13:32:15;48702.50;;;-144.47;28.16
31585;BME280;18191;51.288;12.390;2022-07-06T13:37:05;48742.28;;;-144.47;27.66
31585;BME280;18191;51.288;12.390;2022-07-06T13:41:56;48732.34;;;-144.47;28.82
31585;BME280;18191;51.288;12.390;2022-07-06T13:46:53;48768.16;;;-144.47;27.23
31585;BME280;18191;51.288;12.390;2022-07-06T13:51:44;48722.41;;;-144.47;26.32
31585;BME280;18191;51.288;12.390;2022-07-06T13:56:37;48742.28;;;-144.47;26.42
31585;BME280;18191;51.288;12.390;2022-07-06T14:01:27;48738.31;;;-144.47;27.05
31585;BME280;18191;51.288;12.390;2022-07-06T14:06:19;48686.59;;;-144.47;27.15
31585;BME280;18191;51.288;12.390;2022-07-06T14:11:09;48746.28;;;-144.47;27.37
31585;BME280;18191;51.288;12.390;2022-07-06T14:16:02;48742.28;;;-144.47;26.78
31585;BME280;18191;51.288;12.390;2022-07-06T14:20:52;48730.34;;;-144.47;27.33
31585;BME280;18191;51.288;12.390;2022-07-06T14:25:44;48696.53;;;-144.47;27.96
31585;BME280;18191;51.288;12.390;2022-07-06T14:30:35;48702.50;;;-144.47;27.75
31585;BME280;18191;51.288;12.390;2022-07-06T14:35:29;48718.41;;;-144.47;28.32
31585;BME280;18191;51.288;12.390;2022-07-06T14:40:19;48758.19;;;-144.47;26.75
31585;BME280;18191;51.288;12.390;2022-07-06T14:45:10;48704.50;;;-144.47;27.62
31585;BME280;18191;51.288;12.390;2022-07-06T14:50:00;48710.47;;;-144.47;27.69
31585;BME280;18191;51.288;12.390;2022-07-06T14:54:50;48722.41;;;-144.47;27.66
31585;BME280;18191;51.288;12.390;2022-07-06T14:59:40;48706.50;;;-144.47;26.79
31585;BME280;18191;51.288;12.390;2022-07-06T15:04:31;48718.41;;;-144.47;27.03
31585;BME280;18191;51.288;12.390;2022-07-06T15:09:23;48718.41;;;-144.47;28.02
31585;BME280;18191;51.288;12.390;2022-07-06T15:14:13;48730.34;;;-144.47;28.42
31585;BME280;18191;51.288;12.390;2022-07-06T15:19:06;48738.31;;;-144.47;28.88
31585;BME280;18191;51.288;12.390;2022-07-06T15:23:59;48730.34;;;-144.47;28.18
31585;BME280;18191;51.288;12.390;2022-07-06T15:28:49;48678.63;;;-144.47;28.08
31585;BME280;18191;51.288;12.390;2022-07-06T15:33:40;48732.34;;;-144.47;27.77
31585;BME280;18191;51.288;12.390;2022-07-06T15:38:30;48720.41;;;-144.47;28.11
31585;BME280;18191;51.288;12.390;2022-07-06T15:43:21;48678.63;;;-144.47;27.06
31585;BME280;18191;51.288;12.390;2022-07-06T15:48:11;48722.41;;;-144.47;27.47
31585;BME280;18191;51.288;12.390;2022-07-06T15:53:03;48722.41;;;-144.47;28.44
31585;BME280;18191;51.288;12.390;2022-07-06T15:57:53;48690.56;;;-144.47;27.87
31585;BME280;18191;51.288;12.390;2022-07-06T16:02:44;48702.50;;;-144.47;26.66
31585;BME280;18191;51.288;12.390;2022-07-06T16:07:35;48724.38;;;-144.47;27.30
31585;BME280;18191;51.288;12.390;2022-07-06T16:12:26;48730.34;;;-144.47;28.32
31585;BME280;18191;51.288;12.390;2022-07-06T16:17:16;48740.31;;;-144.47;27.88
31585;BME280;18191;51.288;12.390;2022-07-06T16:22:06;48706.50;;;-144.47;28.11
31585;BME280;18191;51.288;12.390;2022-07-06T16:26:57;48734.34;;;-144.47;27.90
31585;BME280;18191;51.288;12.390;2022-07-06T16:31:47;48722.41;;;-144.47;28.29
31585;BME280;18191;51.288;12.390;2022-07-06T16:36:37;48726.38;;;-144.47;28.10
31585;BME280;18191;51.288;12.390;2022-07-06T16:41:28;48742.28;;;-144.47;28.28
31585;BME280;18191;51.288;12.390;2022-07-06T16:46:18;48730.34;;;-144.47;28.57
31585;BME280;18191;51.288;12.390;2022-07-06T16:51:09;48754.22;;;-144.47;29.13
31585;BME280;18191;51.288;12.390;2022-07-06T16:55:59;48730.34;;;-144.47;28.19
31585;BME280;18191;51.288;12.390;2022-07-06T17:00:50;48712.44;;;-144.47;28.56
31585;BME280;18191;51.288;12.390;2022-07-06T17:05:41;48662.72;;;-144.47;28.24
31585;BME280;18191;51.288;12.390;2022-07-06T17:10:31;48730.34;;;-144.47;28.59
31585;BME280;18191;51.288;12.390;2022-07-06T17:15:22;48678.63;;;-144.47;28.99
31585;BME280;18191;51.288;12.390;2022-07-06T17:20:12;48718.41;;;-144.47;28.00
31585;BME280;18191;51.288;12.390;2022-07-06T17:25:03;48758.19;;;-144.47;27.88
31585;BME280;18191;51.288;12.390;2022-07-06T17:29:53;48688.59;;;-144.47;27.60
31585;BME280;18191;51.288;12.390;2022-07-06T17:34:44;48702.50;;;-144.47;27.69
31585;BME280;18191;51.288;12.390;2022-07-06T17:39:36;48726.38;;;-144.47;27.28
31585;BME280;18191;51.288;12.390;2022-07-06T17:44:26;48700.53;;;-144.47;27.42
31585;BME280;18191;51.288;12.390;2022-07-06T17:49:16;48744.28;;;-144.47;27.98
31585;BME280;18191;51.288;12.390;2022-07-06T17:54:07;48714.44;;;-144.47;28.44
31585;BME280;18191;51.288;12.390;2022-07-06T17:58:57;48726.38;;;-144.47;27.51
31585;BME280;18191;51.288;12.390;2022-07-06T18:03:48;48742.28;;;-144.47;27.47
31585;BME280;18191;51.288;12.390;2022-07-06T18:08:39;48714.44;;;-144.47;27.53
31585;BME280;18191;51.288;12.390;2022-07-06T18:13:29;48702.50;;;-144.47;28.10
31585;BME280;18191;51.288;12.390;2022-07-06T18:18:20;48690.56;;;-144.47;29.21
31585;BME280;18191;51.288;12.390;2022-07-06T18:23:10;48702.50;;;-144.47;29.79
31585;BME280;18191;51.288;12.390;2022-07-06T18:28:01;48710.47;;;-144.47;30.71
31585;BME280;18191;51.288;12.390;2022-07-06T18:32:51;48712.44;;;-144.47;30.83
31585;BME280;18191;51.288;12.390;2022-07-06T18:37:42;48762.19;;;-144.47;30.93
31585;BME280;18191;51.288;12.390;2022-07-06T18:42:32;48776.09;;;-144.47;31.13
31585;BME280;18191;51.288;12.390;2022-07-06T18:47:23;48714.44;;;-144.47;32.11
31585;BME280;18191;51.288;12.390;2022-07-06T18:52:14;48742.28;;;-144.47;31.84
31585;BME280;18191;51.288;12.390;2022-07-06T18:57:05;48730.34;;;-144.47;33.05
31585;BME280;18191;51.288;12.390;2022-07-06T19:01:57;48748.25;;;-144.47;31.83
31585;BME280;18191;51.288;12.390;2022-07-06T19:06:47;48722.41;;;-144.47;32.23
31585;BME280;18191;51.288;12.390;2022-07-06T19:11:37;48734.34;;;-144.47;32.40
31585;BME280;18191;51.288;12.390;2022-07-06T19:16:27;48762.19;;;-144.47;33.34
31585;BME280;18191;51.288;12.390;2022-07-06T19:21:19;48722.41;;;-144.47;33.77
31585;BME280;18191;51.288;12.390;2022-07-06T19:26:09;48786.06;;;-144.47;36.27
31585;BME280;18191;51.288;12.390;2022-07-06T19:31:00;48730.34;;;-144.47;35.50
31585;BME280;18191;51.288;12.390;2022-07-06T19:35:50;48726.38;;;-144.47;35.74
31585;BME280;18191;51.288;12.390;2022-07-06T19:40:40;48742.28;;;-144.47;36.83
31585;BME280;18191;51.288;12.390;2022-07-06T19:45:31;48734.34;;;-144.47;37.98
31585;BME280;18191;51.288;12.390;2022-07-06T19:50:21;48742.28;;;-144.47;36.56
31585;BME280;18191;51.288;12.390;2022-07-06T19:55:12;48766.16;;;-144.47;37.36
31585;BME280;18191;51.288;12.390;2022-07-06T20:00:04;48752.22;;;-144.47;38.23
31585;BME280;18191;51.288;12.390;2022-07-06T20:04:54;48776.09;;;-144.47;38.11
31585;BME280;18191;51.288;12.390;2022-07-06T20:09:45;48758.19;;;-144.47;38.99
31585;BME280;18191;51.288;12.390;2022-07-06T20:14:36;48714.44;;;-144.47;39.68
31585;BME280;18191;51.288;12.390;2022-07-06T20:19:26;48756.22;;;-144.47;39.46
31585;BME280;18191;51.288;12.390;2022-07-06T20:24:16;48772.13;;;-144.47;40.39
31585;BME280;18191;51.288;12.390;2022-07-06T20:29:09;48762.19;;;-144.47;40.51
31585;BME280;18191;51.288;12.390;2022-07-06T20:34:00;48762.19;;;-144.47;40.51
31585;BME280;18191;51.288;12.390;2022-07-06T20:38:50;48772.13;;;-144.47;42.57
31585;BME280;18191;51.288;12.390;2022-07-06T20:43:41;48762.19;;;-144.47;43.00
31585;BME280;18191;51.288;12.390;2022-07-06T20:48:32;48734.34;;;-144.47;42.32
31585;BME280;18191;51.288;12.390;2022-07-06T20:53:23;48730.34;;;-144.47;43.40
31585;BME280;18191;51.288;12.390;2022-07-06T20:58:13;48768.16;;;-144.47;43.07
31585;BME280;18191;51.288;12.390;2022-07-06T21:03:03;48734.34;;;-144.47;44.64
31585;BME280;18191;51.288;12.390;2022-07-06T21:07:54;48728.38;;;-144.47;44.75
31585;BME280;18191;51.288;12.390;2022-07-06T21:12:44;48794.00;;;-144.47;45.05
31585;BME280;18191;51.288;12.390;2022-07-06T21:17:35;48790.03;;;-144.47;45.68
31585;BME280;18191;51.288;12.390;2022-07-06T21:22:25;48732.34;;;-144.47;45.00
31585;BME280;18191;51.288;12.390;2022-07-06T21:27:15;48760.19;;;-144.47;45.42
31585;BME280;18191;51.288;12.390;2022-07-06T21:32:07;48790.03;;;-144.47;46.01
31585;BME280;18191;51.288;12.390;2022-07-06T21:36:58;48798.00;;;-144.47;46.65
31585;BME280;18191;51.288;12.390;2022-07-06T21:41:49;48752.22;;;-144.47;46.49
31585;BME280;18191;51.288;12.390;2022-07-06T21:46:39;48788.03;;;-144.47;47.72
31585;BME280;18191;51.288;12.390;2022-07-06T21:51:29;48766.16;;;-144.47;48.10
31585;BME280;18191;51.288;12.390;2022-07-06T21:56:20;48770.13;;;-144.47;48.59
31585;BME280;18191;51.288;12.390;2022-07-06T22:01:10;48746.28;;;-144.47;47.68
31585;BME280;18191;51.288;12.390;2022-07-06T22:06:01;48738.31;;;-144.47;49.51
31585;BME280;18191;51.288;12.390;2022-07-06T22:10:51;48758.19;;;-144.47;48.47
31585;BME280;18191;51.288;12.390;2022-07-06T22:15:41;48772.13;;;-144.47;49.30
31585;BME280;18191;51.288;12.390;2022-07-06T22:20:32;48738.31;;;-144.47;49.27
31585;BME280;18191;51.288;12.390;2022-07-06T22:25:22;48790.03;;;-144.47;49.15
31585;BME280;18191;51.288;12.390;2022-07-06T22:30:12;48718.41;;;-144.47;50.64
31585;BME280;18191;51.288;12.390;2022-07-06T22:35:03;48738.31;;;-144.47;51.46
31585;BME280;18191;51.288;12.390;2022-07-06T22:39:53;48774.13;;;-144.47;50.91
31585;BME280;18191;51.288;12.390;2022-07-06T22:45:02;48770.13;;;-144.47;50.22
31585;BME280;18191;51.288;12.390;2022-07-06T22:49:53;48809.91;;;-144.47;50.29
31585;BME280;18191;51.288;12.390;2022-07-06T22:54:43;48774.13;;;-144.47;51.45
31585;BME280;18191;51.288;12.390;2022-07-06T22:59:33;48774.13;;;-144.47;51.81
31585;BME280;18191;51.288;12.390;2022-07-06T23:04:23;48762.19;;;-144.47;52.78
31585;BME280;18191;51.288;12.390;2022-07-06T23:09:14;48734.34;;;-144.47;53.10
31585;BME280;18191;51.288;12.390;2022-07-06T23:14:04;48744.28;;;-144.47;54.39
31585;BME280;18191;51.288;12.390;2022-07-06T23:18:54;48766.16;;;-144.47;54.29
31585;BME280;18191;51.288;12.390;2022-07-06T23:23:44;48734.34;;;-144.47;54.90
31585;BME280;18191;51.288;12.390;2022-07-06T23:28:35;48764.16;;;-144.47;53.83
31585;BME280;18191;51.288;12.390;2022-07-06T23:33:25;48774.13;;;-144.47;54.83
31585;BME280;18191;51.288;12.390;2022-07-06T23:38:15;48746.28;;;-144.47;56.17
31585;BME280;18191;51.288;12.390;2022-07-06T23:43:06;48768.16;;;-144.47;55.71
31585;BME280;18191;51.288;12.390;2022-07-06T23:47:56;48778.09;;;-144.47;57.29
31585;BME280;18191;51.288;12.390;2022-07-06T23:52:48;48782.06;;;-144.47;57.57
31585;BME280;18191;51.288;12.390;2022-07-06T23:57:38;48754.22;;;-144.47;56.96
